Terminal Aerodrome Forecast
Issued by NWS

Current Version | Previous Version | Graphics & Text | Print | Product List | Glossary On
Versions: 1 2 3 4 5 6 7 8 9 10 11 12 13 14 15 16 17 18 19 20 21 22 23 24 25 26 27 28 29 30 31 32 33 34
000
FTUS41 KRNK 270520
TAFLWB
TAF
KLWB 270520Z 2706/2806 00000KT P6SM BKN140
      TEMPO 2709/2712 5SM BR
     FM271500 21004KT P6SM BKN080
     FM280200 00000KT P6SM BKN045 OVC070=

USA.gov is the U.S. government's official web portal to all federal, state and local government web resources and services.